createdAt,value
2018-09-20T00:01:19.421Z,7.78
2018-09-20T00:03:48.592Z,6.70
2018-09-20T00:06:17.685Z,6.30
2018-09-20T00:08:47.109Z,5.80
2018-09-20T00:11:16.308Z,8.13
2018-09-20T00:13:45.453Z,6.53
2018-09-20T00:16:14.550Z,8.38
2018-09-20T00:18:43.638Z,5.85
2018-09-20T00:21:12.685Z,6.47
2018-09-20T00:23:41.789Z,8.28
2018-09-20T00:26:10.980Z,7.25
2018-09-20T00:28:40.066Z,6.67
2018-09-20T00:31:09.446Z,6.35
2018-09-20T00:33:38.578Z,8.63
2018-09-20T00:36:07.822Z,5.95
2018-09-20T00:38:36.949Z,5.75
2018-09-20T00:41:06.086Z,6.08
2018-09-20T00:43:35.170Z,6.12
2018-09-20T00:46:04.447Z,5.33
2018-09-20T00:48:33.734Z,5.70
2018-09-20T00:51:02.991Z,7.80
2018-09-20T00:53:32.159Z,7.87
2018-09-20T00:56:01.293Z,7.42
2018-09-20T00:58:30.406Z,6.10
2018-09-20T01:00:59.717Z,8.15
2018-09-20T01:03:28.765Z,5.90
2018-09-20T01:05:57.858Z,6.35
2018-09-20T01:08:27.213Z,8.13
2018-09-20T01:10:56.414Z,5.95
2018-09-20T01:13:25.726Z,6.67
2018-09-20T01:15:54.773Z,6.30
2018-09-20T01:18:23.845Z,9.83
2018-09-20T01:20:53.128Z,6.60
2018-09-20T01:23:22.286Z,6.08
2018-09-20T01:25:51.395Z,6.05
2018-09-20T01:28:20.466Z,6.97
2018-09-20T01:30:49.822Z,7.50
2018-09-20T01:33:18.833Z,6.17
2018-09-20T01:35:48.069Z,6.97
2018-09-20T01:38:17.166Z,6.65
2018-09-20T01:40:46.230Z,6.42
2018-09-20T01:43:15.369Z,7.17
2018-09-20T01:45:44.590Z,7.50
2018-09-20T01:48:13.769Z,6.30
2018-09-20T01:50:42.802Z,6.92
2018-09-20T01:53:11.862Z,6.95
2018-09-20T01:55:41.053Z,7.15
2018-09-20T01:58:10.284Z,7.10
2018-09-20T02:00:39.475Z,6.83
2018-09-20T02:03:08.638Z,7.83
2018-09-20T02:05:37.661Z,8.55
2018-09-20T02:08:07.097Z,6.55
2018-09-20T02:10:36.350Z,9.60
2018-09-20T02:13:05.575Z,12.63
2018-09-20T02:15:34.758Z,8.08
2018-09-20T02:18:03.913Z,8.43
2018-09-20T02:20:33.001Z,7.20
2018-09-20T02:23:02.929Z,6.97
2018-09-20T02:25:32.150Z,10.15
2018-09-20T02:28:01.468Z,11.38
2018-09-20T02:30:30.599Z,8.68
2018-09-20T02:32:59.824Z,6.70
2018-09-20T02:35:29.082Z,6.27
2018-09-20T02:37:58.161Z,6.45
2018-09-20T02:40:27.407Z,6.93
2018-09-20T02:42:56.748Z,6.75
2018-09-20T02:45:25.848Z,6.27
2018-09-20T02:47:54.841Z,6.70
2018-09-20T02:50:23.945Z,6.37
2018-09-20T02:52:53.278Z,6.72
2018-09-20T02:55:22.546Z,6.67
2018-09-20T02:57:51.723Z,6.65
2018-09-20T03:00:20.934Z,6.37
2018-09-20T03:02:50.149Z,6.43
2018-09-20T03:05:19.266Z,7.57
2018-09-20T03:07:48.450Z,7.45
2018-09-20T03:10:17.687Z,6.95
2018-09-20T03:12:46.833Z,6.65
2018-09-20T03:15:16.129Z,6.17
2018-09-20T03:17:45.125Z,8.03
2018-09-20T03:20:14.193Z,7.20
2018-09-20T03:22:43.495Z,7.13
2018-09-20T03:25:12.579Z,9.15
2018-09-20T03:27:41.777Z,7.55
2018-09-20T03:30:10.932Z,6.92
2018-09-20T03:32:40.353Z,6.03
2018-09-20T03:35:09.619Z,9.03
2018-09-20T03:37:39.829Z,7.15
2018-09-20T03:40:09.148Z,7.53
2018-09-20T03:42:38.325Z,7.90
2018-09-20T03:45:07.474Z,7.57
2018-09-20T03:47:36.675Z,7.97
2018-09-20T03:50:06.068Z,7.83
2018-09-20T03:52:35.331Z,7.35
2018-09-20T03:55:05.126Z,9.93
2018-09-20T03:57:34.417Z,6.80
2018-09-20T04:00:03.592Z,7.30
2018-09-20T04:02:32.686Z,8.68
2018-09-20T04:05:01.933Z,6.95
2018-09-20T04:07:31.157Z,6.97
2018-09-20T04:10:00.386Z,9.30
2018-09-20T04:12:29.599Z,8.13
2018-09-20T04:14:59.118Z,8.13
2018-09-20T04:17:28.238Z,7.17
2018-09-20T04:19:57.422Z,8.90
2018-09-20T04:22:26.496Z,8.23
2018-09-20T04:24:55.716Z,7.20
2018-09-20T04:27:24.869Z,9.37
2018-09-20T04:29:54.123Z,9.87
2018-09-20T04:32:23.670Z,8.53
2018-09-20T04:34:52.869Z,8.38
2018-09-20T04:37:21.969Z,9.10
2018-09-20T04:39:51.057Z,8.88
2018-09-20T04:42:20.337Z,7.93
2018-09-20T04:44:49.496Z,7.70
2018-09-20T04:47:18.576Z,8.45
2018-09-20T04:49:48.286Z,13.13
2018-09-20T04:52:17.503Z,10.37
2018-09-20T04:54:46.765Z,12.07
2018-09-20T04:57:15.841Z,9.60
2018-09-20T04:59:45.120Z,9.07
2018-09-20T05:02:14.226Z,9.35
2018-09-20T05:04:43.241Z,10.05
2018-09-20T05:07:12.522Z,8.80
2018-09-20T05:09:41.843Z,9.33
2018-09-20T05:12:11.073Z,8.70
2018-09-20T05:14:40.296Z,10.20
2018-09-20T05:17:09.382Z,11.00
2018-09-20T05:19:38.590Z,9.13
2018-09-20T05:22:07.676Z,8.30
2018-09-20T05:24:36.887Z,10.68
2018-09-20T05:27:06.166Z,7.90
2018-09-20T05:29:35.280Z,8.88
2018-09-20T05:32:04.386Z,10.00
2018-09-20T05:34:33.680Z,7.80
2018-09-20T05:37:02.779Z,9.40
2018-09-20T05:39:31.890Z,15.27
2018-09-20T05:42:01.070Z,8.15
2018-09-20T05:44:30.382Z,13.38
2018-09-20T05:46:59.442Z,12.03
2018-09-20T05:49:28.677Z,12.50
2018-09-20T05:51:58.003Z,10.05
2018-09-20T05:54:27.185Z,8.90
2018-09-20T05:56:56.517Z,11.47
2018-09-20T05:59:25.824Z,11.93
2018-09-20T06:01:55.017Z,16.60
2018-09-20T06:04:24.065Z,12.65
2018-09-20T06:06:53.162Z,18.55
2018-09-20T06:09:22.318Z,11.08
2018-09-20T06:11:51.631Z,11.33
2018-09-20T06:14:20.679Z,13.85
2018-09-20T06:16:49.805Z,11.18
2018-09-20T06:19:18.980Z,12.78
2018-09-20T06:21:48.281Z,14.73
2018-09-20T06:24:17.639Z,11.70
2018-09-20T06:26:46.906Z,10.65
2018-09-20T06:29:16.129Z,10.65
2018-09-20T06:31:45.311Z,14.20
2018-09-20T06:34:14.570Z,9.53
2018-09-20T06:36:44.143Z,12.53
2018-09-20T06:39:13.986Z,13.03
2018-09-20T06:41:43.326Z,14.28
2018-09-20T06:44:12.522Z,10.08
2018-09-20T06:46:41.763Z,9.03
2018-09-20T06:49:11.039Z,8.35
2018-09-20T06:51:40.334Z,6.95
2018-09-20T06:54:09.408Z,13.93
2018-09-20T06:56:38.612Z,8.23
2018-09-20T06:59:08.446Z,9.95
2018-09-20T07:01:37.393Z,12.00
2018-09-20T07:04:06.813Z,15.08
2018-09-20T07:06:35.930Z,12.60
2018-09-20T07:09:08.395Z,7.65
2018-09-20T07:11:37.693Z,9.65
2018-09-20T07:14:07.017Z,9.35
2018-09-20T07:16:36.353Z,7.30
2018-09-20T07:19:05.468Z,11.12
2018-09-20T07:21:34.674Z,8.13
2018-09-20T07:24:03.829Z,7.95
2018-09-20T07:26:32.935Z,8.90
2018-09-20T07:29:02.190Z,8.78
2018-09-20T07:31:31.321Z,11.60
2018-09-20T07:34:00.466Z,7.47
2018-09-20T07:36:29.757Z,10.15
2018-09-20T07:38:59.037Z,6.22
2018-09-20T07:41:28.088Z,9.30
2018-09-20T07:43:57.242Z,6.95
2018-09-20T07:46:26.494Z,8.03
2018-09-20T07:48:55.704Z,6.80
2018-09-20T07:51:24.843Z,12.95
2018-09-20T07:53:54.069Z,9.05
2018-09-20T07:56:23.249Z,6.50
2018-09-20T07:58:52.472Z,7.75
2018-09-20T08:01:21.632Z,9.08
2018-09-20T08:03:50.725Z,6.85
2018-09-20T08:06:19.799Z,8.00
2018-09-20T08:08:49.070Z,6.72
2018-09-20T08:11:18.304Z,7.30
2018-09-20T08:13:47.690Z,11.30
2018-09-20T08:16:16.801Z,7.35
2018-09-20T08:18:46.057Z,11.15
2018-09-20T08:21:15.103Z,10.10
2018-09-20T08:23:44.147Z,7.25
2018-09-20T08:26:13.333Z,6.35
2018-09-20T08:28:42.489Z,6.90
2018-09-20T08:31:11.531Z,6.90
2018-09-20T08:33:40.831Z,8.78
2018-09-20T08:36:09.929Z,5.62
2018-09-20T08:38:39.062Z,6.72
2018-09-20T08:41:08.257Z,6.30
2018-09-20T08:43:37.328Z,5.83
2018-09-20T08:46:06.418Z,5.42
2018-09-20T08:48:35.456Z,5.78
2018-09-20T08:51:04.675Z,7.45
2018-09-20T08:53:33.706Z,5.40
2018-09-20T08:56:02.972Z,4.58
2018-09-20T08:58:32.906Z,6.87
2018-09-20T09:01:04.330Z,4.70
2018-09-20T09:03:33.335Z,6.08
2018-09-20T09:06:03.262Z,6.40
2018-09-20T09:08:32.439Z,5.92
2018-09-20T09:11:01.501Z,6.92
2018-09-20T09:13:30.648Z,6.47
2018-09-20T09:15:59.712Z,5.28
2018-09-20T09:18:28.686Z,6.28
2018-09-20T09:20:57.778Z,4.17
2018-09-20T09:23:26.791Z,5.55
2018-09-20T09:25:55.767Z,4.22
2018-09-20T09:28:25.027Z,4.35
2018-09-20T09:30:54.053Z,5.22
2018-09-20T09:33:23.158Z,4.87
2018-09-20T09:35:52.365Z,5.55
2018-09-20T09:38:21.395Z,4.78
2018-09-20T09:40:50.575Z,4.95
2018-09-20T09:43:19.657Z,5.05
2018-09-20T09:45:48.670Z,8.45
2018-09-20T09:48:17.763Z,4.20
2018-09-20T09:50:46.899Z,7.70
2018-09-20T09:53:16.091Z,5.22
2018-09-20T09:55:45.066Z,8.80
2018-09-20T09:58:14.153Z,5.10
2018-09-20T10:00:43.306Z,7.12
2018-09-20T10:03:12.631Z,7.50
2018-09-20T10:05:42.214Z,5.05
2018-09-20T10:08:11.336Z,5.42
2018-09-20T10:10:40.437Z,4.75
2018-09-20T10:13:09.503Z,5.22
2018-09-20T10:15:38.626Z,5.87
2018-09-20T10:18:07.766Z,5.00
2018-09-20T10:20:36.963Z,6.70
2018-09-20T10:23:06.262Z,4.90
2018-09-20T10:25:35.216Z,5.25
2018-09-20T10:28:04.299Z,4.92
2018-09-20T10:30:33.522Z,6.92
2018-09-20T10:33:02.599Z,4.87
2018-09-20T10:35:31.762Z,8.30
2018-09-20T10:38:00.904Z,4.35
2018-09-20T10:40:30.053Z,5.50
2018-09-20T10:42:59.122Z,4.70
2018-09-20T10:45:28.263Z,4.25
2018-09-20T10:47:57.282Z,5.37
2018-09-20T10:50:26.446Z,8.78
2018-09-20T10:52:55.474Z,5.75
2018-09-20T10:55:24.646Z,4.62
2018-09-20T10:57:53.942Z,6.85
2018-09-20T11:00:24.074Z,6.33
2018-09-20T11:02:53.102Z,4.90
2018-09-20T11:05:22.282Z,6.10
2018-09-20T11:07:51.350Z,4.65
2018-09-20T11:10:20.481Z,5.33
2018-09-20T11:12:49.599Z,5.90
2018-09-20T11:15:18.730Z,4.72
2018-09-20T11:17:47.799Z,4.60
2018-09-20T11:20:16.810Z,5.03
2018-09-20T11:22:46.239Z,7.25
2018-09-20T11:25:15.412Z,7.12
2018-09-20T11:27:44.588Z,7.90
2018-09-20T11:30:13.847Z,8.00
2018-09-20T11:32:43.299Z,8.78
2018-09-20T11:35:12.279Z,6.28
2018-09-20T11:37:41.433Z,7.70
2018-09-20T11:40:10.544Z,6.22
2018-09-20T11:42:39.734Z,5.97
2018-09-20T11:45:08.714Z,16.37
2018-09-20T11:47:37.937Z,5.78
2018-09-20T11:50:07.559Z,8.88
2018-09-20T11:52:36.698Z,8.78
2018-09-20T11:55:05.850Z,5.72
2018-09-20T11:57:35.007Z,8.83
2018-09-20T12:00:04.221Z,7.78
2018-09-20T12:02:33.365Z,10.23
2018-09-20T12:05:02.370Z,5.97
2018-09-20T12:07:31.437Z,7.05
2018-09-20T12:10:01.226Z,10.82
2018-09-20T12:12:30.293Z,7.47
2018-09-20T12:14:59.334Z,6.95
2018-09-20T12:17:28.309Z,10.70
2018-09-20T12:19:57.512Z,10.50
2018-09-20T12:22:26.704Z,7.92
2018-09-20T12:24:55.720Z,9.90
2018-09-20T12:27:24.726Z,10.70
2018-09-20T12:29:53.897Z,8.28
2018-09-20T12:32:23.195Z,6.90
2018-09-20T12:34:52.566Z,8.08
2018-09-20T12:37:25.666Z,7.37
2018-09-20T12:39:54.761Z,5.80
2018-09-20T12:42:24.007Z,8.63
2018-09-20T12:44:53.181Z,15.38
2018-09-20T12:47:22.336Z,10.23
2018-09-20T12:49:51.290Z,8.60
2018-09-20T12:52:21.733Z,11.48
2018-09-20T12:54:50.915Z,7.05
2018-09-20T12:57:20.948Z,6.20
2018-09-20T12:59:51.029Z,10.68
2018-09-20T13:02:20.473Z,7.80
2018-09-20T13:04:49.931Z,7.10
2018-09-20T13:07:19.236Z,7.90
2018-09-20T13:09:48.972Z,8.35
2018-09-20T13:12:18.403Z,6.78
2018-09-20T13:14:47.670Z,10.23
2018-09-20T13:17:16.907Z,10.53
2018-09-20T13:19:46.156Z,8.35
2018-09-20T13:22:15.253Z,7.33
2018-09-20T13:24:45.146Z,10.35
2018-09-20T13:27:14.415Z,8.73
2018-09-20T13:29:45.447Z,9.78
2018-09-20T13:32:16.382Z,10.63
2018-09-20T13:34:47.543Z,12.03
2018-09-20T13:37:17.030Z,10.70
2018-09-20T13:39:46.753Z,8.05
2018-09-20T13:42:16.158Z,12.03
2018-09-20T13:44:45.524Z,12.35
2018-09-20T13:47:15.545Z,16.15
2018-09-20T13:49:44.871Z,8.65
2018-09-20T13:52:14.181Z,8.73
2018-09-20T13:54:43.597Z,8.33
2018-09-20T13:57:13.882Z,6.55
2018-09-20T13:59:43.211Z,9.80
2018-09-20T14:02:12.460Z,7.78
2018-09-20T14:04:41.757Z,6.60
2018-09-20T14:07:11.123Z,7.40
2018-09-20T14:09:40.323Z,8.30
2018-09-20T14:12:09.574Z,8.73
2018-09-20T14:14:38.850Z,6.87
2018-09-20T14:17:08.142Z,6.80
2018-09-20T14:19:37.552Z,6.72
2018-09-20T14:22:06.973Z,8.88
2018-09-20T14:24:36.341Z,12.50
2018-09-20T14:27:05.994Z,7.25
2018-09-20T14:29:35.263Z,8.30
2018-09-20T14:32:04.801Z,11.45
2018-09-20T14:34:34.102Z,8.00
2018-09-20T14:37:03.483Z,8.50
2018-09-20T14:39:32.696Z,10.20
2018-09-20T14:42:01.944Z,10.15
2018-09-20T14:44:31.259Z,8.35
2018-09-20T14:47:00.418Z,8.45
2018-09-20T14:49:29.767Z,10.53
2018-09-20T14:51:59.039Z,8.20
2018-09-20T14:54:28.449Z,8.45
2018-09-20T14:56:57.760Z,7.78
2018-09-20T14:59:27.144Z,12.78
2018-09-20T15:01:56.361Z,7.70
2018-09-20T15:04:25.541Z,10.72
2018-09-20T15:06:54.863Z,11.45
2018-09-20T15:09:24.112Z,8.20
2018-09-20T15:11:53.470Z,9.15
2018-09-20T15:14:22.667Z,14.83
2018-09-20T15:16:51.980Z,9.70
2018-09-20T15:19:21.253Z,8.73
2018-09-20T15:21:50.651Z,9.40
2018-09-20T15:24:19.917Z,9.63
2018-09-20T15:26:49.281Z,8.38
2018-09-20T15:29:19.290Z,8.60
2018-09-20T15:31:48.560Z,9.53
2018-09-20T15:34:17.971Z,10.80
2018-09-20T15:36:47.348Z,8.95
2018-09-20T15:39:17.546Z,8.03
2018-09-20T15:41:46.792Z,9.10
2018-09-20T15:44:16.094Z,11.78
2018-09-20T15:46:46.417Z,8.33
2018-09-20T15:49:16.026Z,12.80
2018-09-20T15:51:45.343Z,11.80
2018-09-20T15:54:14.642Z,7.80
2018-09-20T15:56:43.843Z,9.70
2018-09-20T15:59:13.050Z,8.15
2018-09-20T16:01:42.312Z,12.53
2018-09-20T16:04:11.547Z,10.13
2018-09-20T16:06:40.851Z,9.45
2018-09-20T16:09:11.330Z,8.63
2018-09-20T16:11:40.873Z,8.33
2018-09-20T16:14:10.515Z,9.93
2018-09-20T16:16:39.882Z,9.00
2018-09-20T16:19:09.244Z,8.95
2018-09-20T16:21:38.476Z,13.95
2018-09-20T16:24:07.874Z,9.68
2018-09-20T16:26:37.220Z,11.83
2018-09-20T16:29:19.009Z,11.53
2018-09-20T16:32:05.321Z,12.73
2018-09-20T16:35:48.654Z,11.63
2018-09-20T16:38:27.076Z,9.55
2018-09-20T16:40:58.307Z,14.98
2018-09-20T16:43:28.114Z,9.00
2018-09-20T16:45:57.516Z,8.58
2018-09-20T16:48:26.785Z,15.43
2018-09-20T16:50:56.086Z,16.80
2018-09-20T16:53:25.613Z,17.25
2018-09-20T16:55:55.004Z,16.30
2018-09-20T16:58:24.363Z,10.28
2018-09-20T17:00:53.493Z,10.63
2018-09-20T17:03:22.839Z,18.98
2018-09-20T17:05:52.078Z,8.63
2018-09-20T17:08:22.394Z,10.05
2018-09-20T17:10:52.420Z,14.73
2018-09-20T17:13:22.787Z,10.75
2018-09-20T17:15:52.752Z,8.98
2018-09-20T17:18:23.226Z,9.03
2018-09-20T17:20:53.215Z,10.03
2018-09-20T17:23:22.643Z,12.65
2018-09-20T17:25:52.363Z,13.35
2018-09-20T17:28:24.699Z,12.13
2018-09-20T17:30:54.376Z,14.10
2018-09-20T17:33:27.184Z,10.60
2018-09-20T17:35:58.586Z,15.80
2018-09-20T17:38:29.639Z,16.02
2018-09-20T17:41:19.374Z,12.13
2018-09-20T17:43:54.172Z,12.37
2018-09-20T17:46:24.350Z,9.88
2018-09-20T17:48:58.989Z,10.30
2018-09-20T17:51:28.856Z,11.43
2018-09-20T17:53:58.934Z,10.72
2018-09-20T17:56:29.675Z,14.58
2018-09-20T17:59:00.336Z,17.92
2018-09-20T18:01:29.857Z,10.90
2018-09-20T18:03:59.555Z,13.85
2018-09-20T18:06:29.172Z,14.85
2018-09-20T18:08:58.695Z,13.88
2018-09-20T18:11:29.220Z,11.50
2018-09-20T18:13:58.770Z,13.65
2018-09-20T18:16:28.763Z,17.07
2018-09-20T18:18:58.638Z,11.95
2018-09-20T18:21:29.475Z,11.83
2018-09-20T18:23:59.614Z,11.53
2018-09-20T18:26:30.259Z,14.50
2018-09-20T18:28:59.966Z,12.13
2018-09-20T18:31:31.169Z,15.75
2018-09-20T18:34:01.271Z,12.35
2018-09-20T18:36:30.567Z,15.45
2018-09-20T18:38:59.782Z,11.95
2018-09-20T18:41:29.095Z,11.38
2018-09-20T18:43:58.395Z,12.85
2018-09-20T18:46:27.797Z,12.13
2018-09-20T18:48:57.010Z,15.95
2018-09-20T18:51:31.932Z,17.35
2018-09-20T18:54:01.707Z,13.70
2018-09-20T18:56:34.110Z,13.10
2018-09-20T18:59:04.401Z,13.38
2018-09-20T19:01:34.755Z,15.03
2018-09-20T19:04:04.047Z,18.98
2018-09-20T19:06:34.091Z,21.82
2018-09-20T19:09:03.565Z,16.10
2018-09-20T19:11:32.793Z,13.40
2018-09-20T19:14:02.180Z,17.92
2018-09-20T19:16:31.383Z,14.07
2018-09-20T19:19:01.838Z,16.57
2018-09-20T19:21:31.647Z,17.85
2018-09-20T19:24:01.328Z,21.15
2018-09-20T19:26:31.590Z,15.72
2018-09-20T19:29:00.811Z,16.77
2018-09-20T19:31:30.862Z,15.30
2018-09-20T19:34:42.575Z,15.83
2018-09-20T19:37:11.886Z,12.90
2018-09-20T19:39:41.194Z,13.08
2018-09-20T19:42:10.742Z,15.45
2018-09-20T19:44:40.041Z,17.55
2018-09-20T19:47:09.277Z,14.75
2018-09-20T19:49:38.963Z,12.98
2018-09-20T19:52:08.403Z,12.50
2018-09-20T19:54:37.705Z,16.90
2018-09-20T19:57:07.561Z,15.48
2018-09-20T19:59:36.842Z,17.00
2018-09-20T20:02:06.196Z,13.70
2018-09-20T20:04:35.504Z,21.12
2018-09-20T20:07:05.013Z,17.15
2018-09-20T20:09:34.521Z,17.07
2018-09-20T20:12:06.750Z,18.80
2018-09-20T20:14:36.465Z,15.00
2018-09-20T20:17:06.040Z,14.03
2018-09-20T20:19:35.341Z,15.38
2018-09-20T20:22:04.714Z,14.30
2018-09-20T20:24:34.012Z,17.05
2018-09-20T20:27:03.323Z,16.20
2018-09-20T20:29:33.498Z,17.45
2018-09-20T20:32:02.838Z,19.50
2018-09-20T20:34:32.119Z,14.07
2018-09-20T20:37:02.673Z,16.95
2018-09-20T20:39:33.546Z,14.03
2018-09-20T20:42:03.243Z,17.27
2018-09-20T20:44:32.583Z,15.35
2018-09-20T20:47:01.793Z,14.87
2018-09-20T20:49:31.024Z,15.03
2018-09-20T20:52:00.425Z,17.40
2018-09-20T20:54:29.734Z,15.08
2018-09-20T20:56:59.227Z,16.05
2018-09-20T20:59:28.561Z,18.32
2018-09-20T21:02:09.140Z,17.80
2018-09-20T21:04:38.598Z,17.87
2018-09-20T21:07:08.278Z,15.83
2018-09-20T21:09:37.668Z,18.07
2018-09-20T21:12:18.613Z,20.62
2018-09-20T21:14:48.034Z,18.90
2018-09-20T21:17:17.482Z,17.10
2018-09-20T21:19:46.918Z,17.20
2018-09-20T21:22:16.512Z,15.18
2018-09-20T21:24:45.844Z,18.60
2018-09-20T21:27:15.236Z,16.15
2018-09-20T21:29:44.740Z,16.35
2018-09-20T21:32:14.200Z,17.73
2018-09-20T21:34:43.507Z,15.65
2018-09-20T21:37:12.886Z,16.15
2018-09-20T21:39:42.335Z,17.95
2018-09-20T21:42:11.807Z,16.25
2018-09-20T21:44:41.114Z,16.65
2018-09-20T21:47:10.825Z,15.98
2018-09-20T21:49:40.166Z,16.93
2018-09-20T21:52:09.430Z,16.48
2018-09-20T21:54:38.998Z,16.23
2018-09-20T21:57:08.473Z,15.45
2018-09-20T21:59:37.909Z,18.95
2018-09-20T22:02:07.320Z,17.05
2018-09-20T22:04:36.438Z,16.52
2018-09-20T22:07:05.678Z,16.35
2018-09-20T22:09:35.098Z,18.32
2018-09-20T22:12:04.347Z,16.93
2018-09-20T22:14:33.569Z,16.80
2018-09-20T22:17:02.786Z,18.75
2018-09-20T22:19:32.040Z,21.70
2018-09-20T22:22:01.244Z,20.10
2018-09-20T22:24:30.439Z,17.65
2018-09-20T22:26:59.818Z,15.20
2018-09-20T22:29:29.108Z,15.98
2018-09-20T22:31:58.416Z,16.70
2018-09-20T22:34:27.926Z,16.10
2018-09-20T22:36:57.215Z,17.30
2018-09-20T22:39:26.487Z,15.40
2018-09-20T22:41:55.807Z,13.70
2018-09-20T22:44:25.758Z,15.83
2018-09-20T22:46:55.039Z,17.70
2018-09-20T22:49:24.269Z,17.57
2018-09-20T22:51:53.487Z,15.43
2018-09-20T22:54:22.778Z,16.07
2018-09-20T22:56:52.031Z,17.73
2018-09-20T22:59:21.343Z,17.17
2018-09-20T23:01:50.677Z,17.98
2018-09-20T23:04:20.003Z,16.30
2018-09-20T23:06:49.431Z,16.70
2018-09-20T23:09:19.048Z,17.73
2018-09-20T23:11:48.223Z,17.45
2018-09-20T23:14:17.552Z,15.78
2018-09-20T23:16:46.864Z,13.58
2018-09-20T23:19:16.022Z,14.30
2018-09-20T23:21:45.941Z,14.73
2018-09-20T23:24:15.580Z,16.00
2018-09-20T23:26:46.223Z,13.88
2018-09-20T23:29:15.463Z,16.65
2018-09-20T23:31:44.819Z,15.48
2018-09-20T23:34:14.019Z,22.00
2018-09-20T23:36:43.400Z,19.77
2018-09-20T23:39:13.436Z,15.35
2018-09-20T23:41:42.632Z,16.55
2018-09-20T23:44:11.810Z,14.05
2018-09-20T23:46:41.037Z,14.50
2018-09-20T23:49:10.322Z,15.78
2018-09-20T23:51:39.665Z,18.55
2018-09-20T23:54:08.970Z,13.53
2018-09-20T23:56:38.258Z,14.53
2018-09-20T23:59:07.967Z,14.63
